sensor_id;sensor_type;location;lat;lon;timestamp;P1;durP1;ratioP1;P2;durP2;ratioP2
45043;SDS011;30784;48.490;9.688;2023-08-31T00:02:05;2.45;;;0.85;;
45043;SDS011;30784;48.490;9.688;2023-08-31T00:04:31;3.42;;;0.60;;
45043;SDS011;30784;48.490;9.688;2023-08-31T00:06:56;1.70;;;0.63;;
45043;SDS011;30784;48.490;9.688;2023-08-31T00:09:22;1.65;;;0.70;;
45043;SDS011;30784;48.490;9.688;2023-08-31T00:11:49;2.53;;;0.90;;
45043;SDS011;30784;48.490;9.688;2023-08-31T00:14:15;1.98;;;0.65;;
45043;SDS011;30784;48.490;9.688;2023-08-31T00:16:41;1.83;;;0.70;;
45043;SDS011;30784;48.490;9.688;2023-08-31T00:19:06;3.70;;;0.90;;
45043;SDS011;30784;48.490;9.688;2023-08-31T00:21:32;1.77;;;0.77;;
45043;SDS011;30784;48.490;9.688;2023-08-31T00:23:58;2.63;;;0.90;;
45043;SDS011;30784;48.490;9.688;2023-08-31T00:26:24;3.33;;;1.00;;
45043;SDS011;30784;48.490;9.688;2023-08-31T00:28:49;3.88;;;0.90;;
45043;SDS011;30784;48.490;9.688;2023-08-31T00:31:15;3.72;;;1.10;;
45043;SDS011;30784;48.490;9.688;2023-08-31T00:33:40;3.65;;;1.10;;
45043;SDS011;30784;48.490;9.688;2023-08-31T00:36:06;3.28;;;0.90;;
45043;SDS011;30784;48.490;9.688;2023-08-31T00:38:32;2.42;;;0.90;;
45043;SDS011;30784;48.490;9.688;2023-08-31T00:40:58;4.22;;;1.25;;
45043;SDS011;30784;48.490;9.688;2023-08-31T00:43:25;3.72;;;1.08;;
45043;SDS011;30784;48.490;9.688;2023-08-31T00:45:51;3.85;;;1.00;;
45043;SDS011;30784;48.490;9.688;2023-08-31T00:48:21;5.25;;;1.20;;
45043;SDS011;30784;48.490;9.688;2023-08-31T00:50:47;4.13;;;1.10;;
45043;SDS011;30784;48.490;9.688;2023-08-31T00:53:13;5.03;;;1.38;;
45043;SDS011;30784;48.490;9.688;2023-08-31T00:55:40;4.30;;;1.20;;
45043;SDS011;30784;48.490;9.688;2023-08-31T00:58:06;4.13;;;1.20;;
45043;SDS011;30784;48.490;9.688;2023-08-31T01:06:04;5.10;;;1.35;;
45043;SDS011;30784;48.490;9.688;2023-08-31T01:08:46;4.28;;;1.40;;
45043;SDS011;30784;48.490;9.688;2023-08-31T01:11:55;3.27;;;1.13;;
45043;SDS011;30784;48.490;9.688;2023-08-31T01:14:25;5.07;;;1.35;;
45043;SDS011;30784;48.490;9.688;2023-08-31T01:16:57;6.20;;;1.80;;
45043;SDS011;30784;48.490;9.688;2023-08-31T01:22:13;4.90;;;1.70;;
45043;SDS011;30784;48.490;9.688;2023-08-31T01:24:46;5.85;;;1.73;;
45043;SDS011;30784;48.490;9.688;2023-08-31T01:27:12;4.90;;;1.40;;
45043;SDS011;30784;48.490;9.688;2023-08-31T01:29:38;4.93;;;1.40;;
45043;SDS011;30784;48.490;9.688;2023-08-31T01:32:06;4.90;;;1.45;;
45043;SDS011;30784;48.490;9.688;2023-08-31T01:34:32;5.38;;;1.63;;
45043;SDS011;30784;48.490;9.688;2023-08-31T01:37:00;5.25;;;1.40;;
45043;SDS011;30784;48.490;9.688;2023-08-31T01:39:33;5.72;;;1.50;;
45043;SDS011;30784;48.490;9.688;2023-08-31T01:42:06;4.70;;;1.45;;
45043;SDS011;30784;48.490;9.688;2023-08-31T01:44:36;5.80;;;1.87;;
45043;SDS011;30784;48.490;9.688;2023-08-31T01:47:03;5.22;;;1.42;;
45043;SDS011;30784;48.490;9.688;2023-08-31T01:49:38;5.55;;;1.50;;
45043;SDS011;30784;48.490;9.688;2023-08-31T01:52:04;3.97;;;1.25;;
45043;SDS011;30784;48.490;9.688;2023-08-31T01:54:30;6.07;;;1.88;;
45043;SDS011;30784;48.490;9.688;2023-08-31T01:56:56;5.78;;;1.50;;
45043;SDS011;30784;48.490;9.688;2023-08-31T01:59:22;6.40;;;1.60;;
45043;SDS011;30784;48.490;9.688;2023-08-31T02:01:47;8.52;;;1.67;;
45043;SDS011;30784;48.490;9.688;2023-08-31T02:04:13;5.00;;;1.60;;
45043;SDS011;30784;48.490;9.688;2023-08-31T02:06:38;6.78;;;1.50;;
45043;SDS011;30784;48.490;9.688;2023-08-31T02:09:04;6.00;;;1.40;;
45043;SDS011;30784;48.490;9.688;2023-08-31T02:11:30;5.85;;;1.60;;
45043;SDS011;30784;48.490;9.688;2023-08-31T02:13:56;4.80;;;1.60;;
45043;SDS011;30784;48.490;9.688;2023-08-31T02:16:23;6.53;;;1.65;;
45043;SDS011;30784;48.490;9.688;2023-08-31T02:18:48;4.47;;;1.38;;
45043;SDS011;30784;48.490;9.688;2023-08-31T02:21:14;5.63;;;1.67;;
45043;SDS011;30784;48.490;9.688;2023-08-31T02:23:40;5.90;;;1.80;;
45043;SDS011;30784;48.490;9.688;2023-08-31T02:26:05;6.07;;;1.55;;
45043;SDS011;30784;48.490;9.688;2023-08-31T02:28:31;6.38;;;1.88;;
45043;SDS011;30784;48.490;9.688;2023-08-31T02:30:57;5.50;;;1.52;;
45043;SDS011;30784;48.490;9.688;2023-08-31T02:33:24;4.95;;;1.70;;
45043;SDS011;30784;48.490;9.688;2023-08-31T02:35:50;6.00;;;1.80;;
45043;SDS011;30784;48.490;9.688;2023-08-31T02:38:15;6.13;;;1.80;;
45043;SDS011;30784;48.490;9.688;2023-08-31T02:40:41;4.40;;;1.63;;
45043;SDS011;30784;48.490;9.688;2023-08-31T02:43:07;6.88;;;1.80;;
45043;SDS011;30784;48.490;9.688;2023-08-31T02:45:32;5.20;;;1.50;;
45043;SDS011;30784;48.490;9.688;2023-08-31T02:47:58;5.03;;;1.40;;
45043;SDS011;30784;48.490;9.688;2023-08-31T02:50:23;4.80;;;1.45;;
45043;SDS011;30784;48.490;9.688;2023-08-31T02:52:49;5.47;;;1.50;;
45043;SDS011;30784;48.490;9.688;2023-08-31T02:55:15;4.90;;;1.65;;
45043;SDS011;30784;48.490;9.688;2023-08-31T02:57:40;8.30;;;1.67;;
45043;SDS011;30784;48.490;9.688;2023-08-31T03:00:06;6.38;;;1.80;;
45043;SDS011;30784;48.490;9.688;2023-08-31T03:02:36;5.15;;;1.60;;
45043;SDS011;30784;48.490;9.688;2023-08-31T03:05:01;5.60;;;1.77;;
45043;SDS011;30784;48.490;9.688;2023-08-31T03:07:27;5.15;;;1.80;;
45043;SDS011;30784;48.490;9.688;2023-08-31T03:09:52;4.85;;;1.58;;
45043;SDS011;30784;48.490;9.688;2023-08-31T03:12:18;5.43;;;1.85;;
45043;SDS011;30784;48.490;9.688;2023-08-31T03:14:43;5.68;;;1.70;;
45043;SDS011;30784;48.490;9.688;2023-08-31T03:17:09;4.65;;;1.48;;
45043;SDS011;30784;48.490;9.688;2023-08-31T03:19:34;7.07;;;1.63;;
45043;SDS011;30784;48.490;9.688;2023-08-31T03:22:00;4.97;;;1.40;;
45043;SDS011;30784;48.490;9.688;2023-08-31T03:24:26;5.32;;;1.80;;
45043;SDS011;30784;48.490;9.688;2023-08-31T03:26:51;7.40;;;2.03;;
45043;SDS011;30784;48.490;9.688;2023-08-31T03:29:17;5.22;;;1.90;;
45043;SDS011;30784;48.490;9.688;2023-08-31T03:31:42;5.07;;;1.77;;
45043;SDS011;30784;48.490;9.688;2023-08-31T03:34:08;5.57;;;1.88;;
45043;SDS011;30784;48.490;9.688;2023-08-31T03:36:34;4.75;;;1.60;;
45043;SDS011;30784;48.490;9.688;2023-08-31T03:38:59;5.57;;;2.03;;
45043;SDS011;30784;48.490;9.688;2023-08-31T03:41:25;5.60;;;1.70;;
45043;SDS011;30784;48.490;9.688;2023-08-31T03:43:50;6.00;;;1.90;;
45043;SDS011;30784;48.490;9.688;2023-08-31T03:46:16;5.75;;;1.83;;
45043;SDS011;30784;48.490;9.688;2023-08-31T03:48:41;5.15;;;1.90;;
45043;SDS011;30784;48.490;9.688;2023-08-31T03:51:07;4.97;;;1.60;;
45043;SDS011;30784;48.490;9.688;2023-08-31T03:53:32;5.78;;;1.58;;
45043;SDS011;30784;48.490;9.688;2023-08-31T03:55:58;4.95;;;1.73;;
45043;SDS011;30784;48.490;9.688;2023-08-31T04:01:45;6.90;;;1.80;;
45043;SDS011;30784;48.490;9.688;2023-08-31T04:04:11;4.80;;;1.80;;
45043;SDS011;30784;48.490;9.688;2023-08-31T04:06:37;6.38;;;2.20;;
45043;SDS011;30784;48.490;9.688;2023-08-31T04:09:02;8.50;;;2.30;;
45043;SDS011;30784;48.490;9.688;2023-08-31T04:11:28;5.45;;;1.75;;
45043;SDS011;30784;48.490;9.688;2023-08-31T04:13:53;4.70;;;1.58;;
45043;SDS011;30784;48.490;9.688;2023-08-31T04:16:19;7.88;;;1.80;;
45043;SDS011;30784;48.490;9.688;2023-08-31T04:18:44;7.18;;;2.05;;
45043;SDS011;30784;48.490;9.688;2023-08-31T04:21:16;5.70;;;1.98;;
45043;SDS011;30784;48.490;9.688;2023-08-31T04:23:42;6.43;;;1.80;;
45043;SDS011;30784;48.490;9.688;2023-08-31T04:26:11;4.97;;;1.67;;
45043;SDS011;30784;48.490;9.688;2023-08-31T04:28:41;6.35;;;1.92;;
45043;SDS011;30784;48.490;9.688;2023-08-31T04:31:07;5.53;;;2.05;;
45043;SDS011;30784;48.490;9.688;2023-08-31T04:33:36;4.85;;;1.70;;
45043;SDS011;30784;48.490;9.688;2023-08-31T04:36:06;5.50;;;1.90;;
45043;SDS011;30784;48.490;9.688;2023-08-31T04:38:31;7.07;;;1.95;;
45043;SDS011;30784;48.490;9.688;2023-08-31T04:40:58;5.57;;;1.80;;
45043;SDS011;30784;48.490;9.688;2023-08-31T04:43:24;5.63;;;1.92;;
45043;SDS011;30784;48.490;9.688;2023-08-31T04:45:53;6.47;;;1.70;;
45043;SDS011;30784;48.490;9.688;2023-08-31T04:48:19;6.82;;;2.00;;
45043;SDS011;30784;48.490;9.688;2023-08-31T04:50:45;6.28;;;1.77;;
45043;SDS011;30784;48.490;9.688;2023-08-31T04:53:11;6.22;;;2.10;;
45043;SDS011;30784;48.490;9.688;2023-08-31T04:55:37;5.78;;;2.15;;
45043;SDS011;30784;48.490;9.688;2023-08-31T04:58:02;7.30;;;2.10;;
45043;SDS011;30784;48.490;9.688;2023-08-31T05:00:28;4.95;;;1.70;;
45043;SDS011;30784;48.490;9.688;2023-08-31T05:02:55;5.40;;;2.00;;
45043;SDS011;30784;48.490;9.688;2023-08-31T05:05:20;5.60;;;1.92;;
45043;SDS011;30784;48.490;9.688;2023-08-31T05:07:46;6.20;;;1.90;;
45043;SDS011;30784;48.490;9.688;2023-08-31T05:10:12;6.28;;;2.10;;
45043;SDS011;30784;48.490;9.688;2023-08-31T05:12:37;5.63;;;1.65;;
45043;SDS011;30784;48.490;9.688;2023-08-31T05:15:03;5.80;;;2.00;;
45043;SDS011;30784;48.490;9.688;2023-08-31T05:17:29;8.90;;;2.72;;
45043;SDS011;30784;48.490;9.688;2023-08-31T05:19:55;7.55;;;2.25;;
45043;SDS011;30784;48.490;9.688;2023-08-31T05:22:21;6.85;;;2.13;;
45043;SDS011;30784;48.490;9.688;2023-08-31T05:24:47;7.25;;;1.73;;
45043;SDS011;30784;48.490;9.688;2023-08-31T05:27:13;6.20;;;1.65;;
45043;SDS011;30784;48.490;9.688;2023-08-31T05:29:38;6.07;;;1.65;;
45043;SDS011;30784;48.490;9.688;2023-08-31T05:32:04;5.80;;;1.80;;
45043;SDS011;30784;48.490;9.688;2023-08-31T05:34:30;5.47;;;1.83;;
45043;SDS011;30784;48.490;9.688;2023-08-31T05:36:57;5.18;;;1.63;;
45043;SDS011;30784;48.490;9.688;2023-08-31T05:39:23;6.10;;;1.80;;
45043;SDS011;30784;48.490;9.688;2023-08-31T05:41:48;7.18;;;1.92;;
45043;SDS011;30784;48.490;9.688;2023-08-31T05:44:14;8.02;;;1.77;;
45043;SDS011;30784;48.490;9.688;2023-08-31T05:46:39;5.13;;;1.75;;
45043;SDS011;30784;48.490;9.688;2023-08-31T05:49:06;6.03;;;1.80;;
45043;SDS011;30784;48.490;9.688;2023-08-31T05:51:32;5.20;;;1.77;;
45043;SDS011;30784;48.490;9.688;2023-08-31T05:53:57;5.18;;;1.70;;
45043;SDS011;30784;48.490;9.688;2023-08-31T05:56:23;5.65;;;1.90;;
45043;SDS011;30784;48.490;9.688;2023-08-31T05:58:48;8.98;;;2.25;;
45043;SDS011;30784;48.490;9.688;2023-08-31T06:01:15;5.72;;;1.90;;
45043;SDS011;30784;48.490;9.688;2023-08-31T06:03:41;6.68;;;1.98;;
45043;SDS011;30784;48.490;9.688;2023-08-31T06:06:06;9.00;;;4.18;;
45043;SDS011;30784;48.490;9.688;2023-08-31T06:08:32;8.07;;;2.72;;
45043;SDS011;30784;48.490;9.688;2023-08-31T06:10:58;5.80;;;1.90;;
45043;SDS011;30784;48.490;9.688;2023-08-31T06:13:23;5.93;;;2.00;;
45043;SDS011;30784;48.490;9.688;2023-08-31T06:15:49;4.97;;;1.77;;
45043;SDS011;30784;48.490;9.688;2023-08-31T06:18:14;5.20;;;1.77;;
45043;SDS011;30784;48.490;9.688;2023-08-31T06:20:40;5.00;;;1.73;;
45043;SDS011;30784;48.490;9.688;2023-08-31T06:23:05;6.13;;;2.00;;
45043;SDS011;30784;48.490;9.688;2023-08-31T06:25:31;6.65;;;1.80;;
45043;SDS011;30784;48.490;9.688;2023-08-31T06:27:57;6.35;;;1.75;;
45043;SDS011;30784;48.490;9.688;2023-08-31T06:30:23;5.93;;;1.75;;
45043;SDS011;30784;48.490;9.688;2023-08-31T06:32:49;5.60;;;1.60;;
45043;SDS011;30784;48.490;9.688;2023-08-31T06:35:15;5.60;;;1.80;;
45043;SDS011;30784;48.490;9.688;2023-08-31T06:37:41;7.75;;;2.25;;
45043;SDS011;30784;48.490;9.688;2023-08-31T06:40:07;5.38;;;1.65;;
45043;SDS011;30784;48.490;9.688;2023-08-31T06:42:33;6.25;;;1.77;;
45043;SDS011;30784;48.490;9.688;2023-08-31T06:45:00;5.88;;;1.85;;
45043;SDS011;30784;48.490;9.688;2023-08-31T06:47:25;6.47;;;2.17;;
45043;SDS011;30784;48.490;9.688;2023-08-31T06:49:51;6.20;;;1.83;;
45043;SDS011;30784;48.490;9.688;2023-08-31T06:52:17;5.78;;;1.70;;
45043;SDS011;30784;48.490;9.688;2023-08-31T06:54:43;6.28;;;2.10;;
45043;SDS011;30784;48.490;9.688;2023-08-31T06:57:09;6.45;;;2.08;;
45043;SDS011;30784;48.490;9.688;2023-08-31T06:59:34;6.60;;;1.75;;
45043;SDS011;30784;48.490;9.688;2023-08-31T07:02:00;5.55;;;1.70;;
45043;SDS011;30784;48.490;9.688;2023-08-31T07:04:26;5.65;;;1.80;;
45043;SDS011;30784;48.490;9.688;2023-08-31T07:06:52;6.25;;;1.83;;
45043;SDS011;30784;48.490;9.688;2023-08-31T07:09:18;7.15;;;2.05;;
45043;SDS011;30784;48.490;9.688;2023-08-31T07:11:43;5.88;;;1.70;;
45043;SDS011;30784;48.490;9.688;2023-08-31T07:14:09;5.53;;;1.75;;
45043;SDS011;30784;48.490;9.688;2023-08-31T07:16:34;7.82;;;1.88;;
45043;SDS011;30784;48.490;9.688;2023-08-31T07:19:00;5.75;;;1.90;;
45043;SDS011;30784;48.490;9.688;2023-08-31T07:21:27;5.57;;;1.60;;
45043;SDS011;30784;48.490;9.688;2023-08-31T07:23:53;7.30;;;1.88;;
45043;SDS011;30784;48.490;9.688;2023-08-31T07:26:19;6.70;;;1.77;;
45043;SDS011;30784;48.490;9.688;2023-08-31T07:28:45;8.13;;;1.67;;
45043;SDS011;30784;48.490;9.688;2023-08-31T07:31:10;5.28;;;1.60;;
45043;SDS011;30784;48.490;9.688;2023-08-31T07:33:37;5.38;;;1.40;;
45043;SDS011;30784;48.490;9.688;2023-08-31T07:36:02;4.80;;;1.67;;
45043;SDS011;30784;48.490;9.688;2023-08-31T07:38:30;7.00;;;1.90;;
45043;SDS011;30784;48.490;9.688;2023-08-31T07:40:56;6.95;;;1.75;;
45043;SDS011;30784;48.490;9.688;2023-08-31T07:43:22;5.43;;;1.63;;
45043;SDS011;30784;48.490;9.688;2023-08-31T07:45:48;8.18;;;2.10;;
45043;SDS011;30784;48.490;9.688;2023-08-31T07:48:14;5.95;;;1.60;;
45043;SDS011;30784;48.490;9.688;2023-08-31T07:50:40;6.70;;;1.80;;
45043;SDS011;30784;48.490;9.688;2023-08-31T07:53:06;6.47;;;1.63;;
45043;SDS011;30784;48.490;9.688;2023-08-31T07:55:32;5.50;;;1.33;;
45043;SDS011;30784;48.490;9.688;2023-08-31T07:57:58;7.32;;;1.60;;
45043;SDS011;30784;48.490;9.688;2023-08-31T08:00:23;6.30;;;1.60;;
45043;SDS011;30784;48.490;9.688;2023-08-31T08:02:49;7.38;;;1.90;;
45043;SDS011;30784;48.490;9.688;2023-08-31T08:05:14;5.60;;;1.73;;
45043;SDS011;30784;48.490;9.688;2023-08-31T08:07:40;5.55;;;1.40;;
45043;SDS011;30784;48.490;9.688;2023-08-31T08:10:07;4.40;;;1.42;;
45043;SDS011;30784;48.490;9.688;2023-08-31T08:12:39;5.50;;;1.30;;
45043;SDS011;30784;48.490;9.688;2023-08-31T08:15:08;4.07;;;1.38;;
45043;SDS011;30784;48.490;9.688;2023-08-31T08:17:34;6.38;;;1.58;;
45043;SDS011;30784;48.490;9.688;2023-08-31T08:19:59;6.85;;;1.75;;
45043;SDS011;30784;48.490;9.688;2023-08-31T08:22:25;4.57;;;1.40;;
45043;SDS011;30784;48.490;9.688;2023-08-31T08:24:50;6.00;;;1.70;;
45043;SDS011;30784;48.490;9.688;2023-08-31T08:27:16;5.32;;;1.25;;
45043;SDS011;30784;48.490;9.688;2023-08-31T08:29:43;5.88;;;1.27;;
45043;SDS011;30784;48.490;9.688;2023-08-31T08:32:09;5.43;;;1.30;;
45043;SDS011;30784;48.490;9.688;2023-08-31T08:34:35;4.40;;;1.20;;
45043;SDS011;30784;48.490;9.688;2023-08-31T08:37:01;5.80;;;1.40;;
45043;SDS011;30784;48.490;9.688;2023-08-31T08:39:28;5.78;;;1.58;;
45043;SDS011;30784;48.490;9.688;2023-08-31T08:41:54;5.68;;;1.35;;
45043;SDS011;30784;48.490;9.688;2023-08-31T08:44:22;4.78;;;1.25;;
45043;SDS011;30784;48.490;9.688;2023-08-31T08:46:50;5.80;;;1.38;;
45043;SDS011;30784;48.490;9.688;2023-08-31T08:49:17;5.18;;;1.20;;
45043;SDS011;30784;48.490;9.688;2023-08-31T08:51:44;4.60;;;1.35;;
45043;SDS011;30784;48.490;9.688;2023-08-31T08:54:12;5.63;;;1.52;;
45043;SDS011;30784;48.490;9.688;2023-08-31T08:56:38;7.22;;;1.77;;
45043;SDS011;30784;48.490;9.688;2023-08-31T09:02:25;5.55;;;1.65;;
45043;SDS011;30784;48.490;9.688;2023-08-31T09:04:51;6.28;;;1.45;;
45043;SDS011;30784;48.490;9.688;2023-08-31T09:07:22;4.53;;;1.30;;
45043;SDS011;30784;48.490;9.688;2023-08-31T09:09:52;5.00;;;1.38;;
45043;SDS011;30784;48.490;9.688;2023-08-31T09:12:18;6.37;;;1.50;;
45043;SDS011;30784;48.490;9.688;2023-08-31T09:15:02;5.20;;;1.42;;
45043;SDS011;30784;48.490;9.688;2023-08-31T09:17:38;7.22;;;1.70;;
45043;SDS011;30784;48.490;9.688;2023-08-31T09:20:05;6.43;;;1.40;;
45043;SDS011;30784;48.490;9.688;2023-08-31T09:22:32;6.00;;;1.50;;
45043;SDS011;30784;48.490;9.688;2023-08-31T09:24:58;4.75;;;1.38;;
45043;SDS011;30784;48.490;9.688;2023-08-31T09:27:24;4.93;;;1.38;;
45043;SDS011;30784;48.490;9.688;2023-08-31T09:29:49;4.57;;;1.52;;
45043;SDS011;30784;48.490;9.688;2023-08-31T09:32:19;5.32;;;1.38;;
45043;SDS011;30784;48.490;9.688;2023-08-31T09:34:45;4.80;;;1.35;;
45043;SDS011;30784;48.490;9.688;2023-08-31T09:37:10;6.53;;;1.70;;
45043;SDS011;30784;48.490;9.688;2023-08-31T09:39:39;5.22;;;1.60;;
45043;SDS011;30784;48.490;9.688;2023-08-31T09:42:05;6.28;;;1.52;;
45043;SDS011;30784;48.490;9.688;2023-08-31T09:44:31;7.47;;;1.63;;
45043;SDS011;30784;48.490;9.688;2023-08-31T09:46:56;5.50;;;1.42;;
45043;SDS011;30784;48.490;9.688;2023-08-31T09:49:23;5.28;;;1.38;;
45043;SDS011;30784;48.490;9.688;2023-08-31T09:51:50;4.88;;;1.30;;
45043;SDS011;30784;48.490;9.688;2023-08-31T09:54:17;4.25;;;1.30;;
45043;SDS011;30784;48.490;9.688;2023-08-31T09:56:49;6.10;;;1.60;;
45043;SDS011;30784;48.490;9.688;2023-08-31T09:59:15;4.75;;;1.33;;
45043;SDS011;30784;48.490;9.688;2023-08-31T10:01:43;8.25;;;1.60;;
45043;SDS011;30784;48.490;9.688;2023-08-31T10:04:10;5.65;;;1.35;;
45043;SDS011;30784;48.490;9.688;2023-08-31T10:06:40;5.30;;;1.48;;
45043;SDS011;30784;48.490;9.688;2023-08-31T10:09:07;6.15;;;1.60;;
45043;SDS011;30784;48.490;9.688;2023-08-31T10:11:37;4.97;;;1.63;;
45043;SDS011;30784;48.490;9.688;2023-08-31T10:14:04;5.38;;;1.45;;
45043;SDS011;30784;48.490;9.688;2023-08-31T10:16:30;5.97;;;1.75;;
45043;SDS011;30784;48.490;9.688;2023-08-31T10:22:18;6.90;;;1.70;;
45043;SDS011;30784;48.490;9.688;2023-08-31T10:24:56;5.53;;;1.38;;
45043;SDS011;30784;48.490;9.688;2023-08-31T10:27:30;4.97;;;1.52;;
45043;SDS011;30784;48.490;9.688;2023-08-31T10:30:12;4.88;;;1.40;;
45043;SDS011;30784;48.490;9.688;2023-08-31T10:35:55;4.70;;;1.50;;
45043;SDS011;30784;48.490;9.688;2023-08-31T10:43:48;4.80;;;1.35;;
45043;SDS011;30784;48.490;9.688;2023-08-31T10:52:22;6.05;;;1.77;;
45043;SDS011;30784;48.490;9.688;2023-08-31T10:54:51;4.57;;;1.60;;
45043;SDS011;30784;48.490;9.688;2023-08-31T10:57:29;5.68;;;1.30;;
45043;SDS011;30784;48.490;9.688;2023-08-31T10:59:55;5.55;;;1.50;;
45043;SDS011;30784;48.490;9.688;2023-08-31T11:02:31;5.10;;;1.58;;
45043;SDS011;30784;48.490;9.688;2023-08-31T11:05:09;4.68;;;1.33;;
45043;SDS011;30784;48.490;9.688;2023-08-31T11:07:37;4.90;;;1.30;;
45043;SDS011;30784;48.490;9.688;2023-08-31T11:12:39;6.13;;;1.70;;
45043;SDS011;30784;48.490;9.688;2023-08-31T11:15:05;4.80;;;1.70;;
45043;SDS011;30784;48.490;9.688;2023-08-31T11:17:31;6.25;;;1.77;;
45043;SDS011;30784;48.490;9.688;2023-08-31T11:19:58;5.60;;;1.58;;
45043;SDS011;30784;48.490;9.688;2023-08-31T11:22:24;4.15;;;1.40;;
45043;SDS011;30784;48.490;9.688;2023-08-31T11:24:50;5.95;;;1.70;;
45043;SDS011;30784;48.490;9.688;2023-08-31T11:27:18;4.82;;;1.48;;
45043;SDS011;30784;48.490;9.688;2023-08-31T11:29:45;5.85;;;1.40;;
45043;SDS011;30784;48.490;9.688;2023-08-31T11:32:12;5.80;;;1.50;;
45043;SDS011;30784;48.490;9.688;2023-08-31T11:34:41;5.90;;;1.42;;
45043;SDS011;30784;48.490;9.688;2023-08-31T11:37:09;5.63;;;1.50;;
45043;SDS011;30784;48.490;9.688;2023-08-31T11:39:36;6.20;;;1.60;;
45043;SDS011;30784;48.490;9.688;2023-08-31T11:42:04;4.40;;;1.27;;
45043;SDS011;30784;48.490;9.688;2023-08-31T11:44:30;4.50;;;1.40;;
45043;SDS011;30784;48.490;9.688;2023-08-31T11:46:56;4.25;;;1.50;;
45043;SDS011;30784;48.490;9.688;2023-08-31T11:49:22;5.68;;;1.50;;
45043;SDS011;30784;48.490;9.688;2023-08-31T11:51:48;4.45;;;1.38;;
45043;SDS011;30784;48.490;9.688;2023-08-31T11:54:16;5.22;;;1.60;;
45043;SDS011;30784;48.490;9.688;2023-08-31T11:56:42;4.82;;;1.60;;
45043;SDS011;30784;48.490;9.688;2023-08-31T11:59:12;4.90;;;1.30;;
45043;SDS011;30784;48.490;9.688;2023-08-31T12:01:40;5.70;;;1.50;;
45043;SDS011;30784;48.490;9.688;2023-08-31T12:04:10;5.88;;;1.35;;
45043;SDS011;30784;48.490;9.688;2023-08-31T12:06:47;4.60;;;1.45;;
45043;SDS011;30784;48.490;9.688;2023-08-31T12:09:15;6.03;;;1.67;;
45043;SDS011;30784;48.490;9.688;2023-08-31T12:11:41;4.47;;;1.30;;
45043;SDS011;30784;48.490;9.688;2023-08-31T12:14:20;5.05;;;1.50;;
45043;SDS011;30784;48.490;9.688;2023-08-31T12:19:13;4.47;;;1.33;;
45043;SDS011;30784;48.490;9.688;2023-08-31T12:21:39;4.72;;;1.30;;
45043;SDS011;30784;48.490;9.688;2023-08-31T12:24:07;4.55;;;1.27;;
45043;SDS011;30784;48.490;9.688;2023-08-31T12:26:33;4.93;;;1.42;;
45043;SDS011;30784;48.490;9.688;2023-08-31T12:29:00;5.60;;;1.50;;
45043;SDS011;30784;48.490;9.688;2023-08-31T12:31:25;5.50;;;1.63;;
45043;SDS011;30784;48.490;9.688;2023-08-31T12:33:51;5.45;;;1.60;;
45043;SDS011;30784;48.490;9.688;2023-08-31T12:36:17;5.38;;;1.50;;
45043;SDS011;30784;48.490;9.688;2023-08-31T12:38:42;5.10;;;1.33;;
45043;SDS011;30784;48.490;9.688;2023-08-31T12:41:08;4.45;;;1.15;;
45043;SDS011;30784;48.490;9.688;2023-08-31T12:43:34;5.28;;;1.25;;
45043;SDS011;30784;48.490;9.688;2023-08-31T12:45:59;5.30;;;1.50;;
45043;SDS011;30784;48.490;9.688;2023-08-31T12:48:25;6.07;;;1.52;;
45043;SDS011;30784;48.490;9.688;2023-08-31T12:50:51;5.13;;;1.52;;
45043;SDS011;30784;48.490;9.688;2023-08-31T12:53:18;4.95;;;1.33;;
45043;SDS011;30784;48.490;9.688;2023-08-31T12:55:45;4.75;;;1.30;;
45043;SDS011;30784;48.490;9.688;2023-08-31T12:58:11;5.05;;;1.20;;
45043;SDS011;30784;48.490;9.688;2023-08-31T13:00:36;5.22;;;1.48;;
45043;SDS011;30784;48.490;9.688;2023-08-31T13:03:02;4.93;;;1.40;;
45043;SDS011;30784;48.490;9.688;2023-08-31T13:05:28;5.43;;;1.45;;
45043;SDS011;30784;48.490;9.688;2023-08-31T13:07:54;5.28;;;1.52;;
45043;SDS011;30784;48.490;9.688;2023-08-31T13:10:20;5.68;;;1.60;;
45043;SDS011;30784;48.490;9.688;2023-08-31T13:12:45;5.13;;;1.58;;
45043;SDS011;30784;48.490;9.688;2023-08-31T13:15:11;5.88;;;1.58;;
45043;SDS011;30784;48.490;9.688;2023-08-31T13:17:38;5.32;;;1.60;;
45043;SDS011;30784;48.490;9.688;2023-08-31T13:20:03;5.18;;;1.40;;
45043;SDS011;30784;48.490;9.688;2023-08-31T13:22:29;4.53;;;1.58;;
45043;SDS011;30784;48.490;9.688;2023-08-31T13:24:55;5.72;;;1.55;;
45043;SDS011;30784;48.490;9.688;2023-08-31T13:27:21;4.90;;;1.40;;
45043;SDS011;30784;48.490;9.688;2023-08-31T13:29:47;4.43;;;1.27;;
45043;SDS011;30784;48.490;9.688;2023-08-31T13:32:12;4.25;;;1.40;;
45043;SDS011;30784;48.490;9.688;2023-08-31T13:34:38;5.97;;;1.70;;
45043;SDS011;30784;48.490;9.688;2023-08-31T13:37:04;4.18;;;1.35;;
45043;SDS011;30784;48.490;9.688;2023-08-31T13:39:30;6.47;;;1.45;;
45043;SDS011;30784;48.490;9.688;2023-08-31T13:41:56;4.90;;;1.40;;
45043;SDS011;30784;48.490;9.688;2023-08-31T13:44:22;4.85;;;1.40;;
45043;SDS011;30784;48.490;9.688;2023-08-31T13:46:47;4.53;;;1.20;;
45043;SDS011;30784;48.490;9.688;2023-08-31T13:49:14;5.35;;;1.52;;
45043;SDS011;30784;48.490;9.688;2023-08-31T13:51:39;4.60;;;1.35;;
45043;SDS011;30784;48.490;9.688;2023-08-31T13:54:06;4.90;;;1.30;;
45043;SDS011;30784;48.490;9.688;2023-08-31T13:56:32;5.40;;;1.40;;
45043;SDS011;30784;48.490;9.688;2023-08-31T13:58:58;5.25;;;1.40;;
45043;SDS011;30784;48.490;9.688;2023-08-31T14:01:24;5.15;;;1.40;;
45043;SDS011;30784;48.490;9.688;2023-08-31T14:03:50;5.60;;;1.50;;
45043;SDS011;30784;48.490;9.688;2023-08-31T14:06:15;3.97;;;1.13;;
45043;SDS011;30784;48.490;9.688;2023-08-31T14:08:41;4.35;;;1.20;;
45043;SDS011;30784;48.490;9.688;2023-08-31T14:11:06;5.60;;;1.55;;
45043;SDS011;30784;48.490;9.688;2023-08-31T14:13:32;6.30;;;1.40;;
45043;SDS011;30784;48.490;9.688;2023-08-31T14:15:59;3.92;;;1.25;;
45043;SDS011;30784;48.490;9.688;2023-08-31T14:18:28;5.53;;;1.42;;
45043;SDS011;30784;48.490;9.688;2023-08-31T14:20:55;5.10;;;1.30;;
45043;SDS011;30784;48.490;9.688;2023-08-31T14:23:21;5.05;;;1.48;;
45043;SDS011;30784;48.490;9.688;2023-08-31T14:25:47;4.07;;;1.15;;
45043;SDS011;30784;48.490;9.688;2023-08-31T14:28:12;4.88;;;1.50;;
45043;SDS011;30784;48.490;9.688;2023-08-31T14:30:38;4.13;;;1.13;;
45043;SDS011;30784;48.490;9.688;2023-08-31T14:33:04;5.18;;;1.40;;
45043;SDS011;30784;48.490;9.688;2023-08-31T14:35:30;4.93;;;1.40;;
45043;SDS011;30784;48.490;9.688;2023-08-31T14:37:56;7.03;;;1.48;;
45043;SDS011;30784;48.490;9.688;2023-08-31T14:40:23;6.28;;;1.40;;
45043;SDS011;30784;48.490;9.688;2023-08-31T14:42:48;4.78;;;1.40;;
45043;SDS011;30784;48.490;9.688;2023-08-31T14:45:14;4.95;;;1.40;;
45043;SDS011;30784;48.490;9.688;2023-08-31T14:47:40;6.13;;;1.77;;
45043;SDS011;30784;48.490;9.688;2023-08-31T14:50:07;5.38;;;1.40;;
45043;SDS011;30784;48.490;9.688;2023-08-31T14:52:33;5.07;;;1.58;;
45043;SDS011;30784;48.490;9.688;2023-08-31T14:54:59;5.95;;;1.50;;
45043;SDS011;30784;48.490;9.688;2023-08-31T14:57:25;5.68;;;1.67;;
45043;SDS011;30784;48.490;9.688;2023-08-31T14:59:50;5.32;;;1.70;;
45043;SDS011;30784;48.490;9.688;2023-08-31T15:02:18;5.18;;;1.38;;
45043;SDS011;30784;48.490;9.688;2023-08-31T15:04:47;5.40;;;1.20;;
45043;SDS011;30784;48.490;9.688;2023-08-31T15:09:45;6.90;;;1.70;;
45043;SDS011;30784;48.490;9.688;2023-08-31T15:12:11;5.47;;;1.55;;
45043;SDS011;30784;48.490;9.688;2023-08-31T15:14:37;5.10;;;1.50;;
45043;SDS011;30784;48.490;9.688;2023-08-31T15:17:05;3.97;;;1.20;;
45043;SDS011;30784;48.490;9.688;2023-08-31T15:19:31;4.20;;;1.15;;
45043;SDS011;30784;48.490;9.688;2023-08-31T15:21:57;5.55;;;1.40;;
45043;SDS011;30784;48.490;9.688;2023-08-31T15:24:23;5.28;;;1.60;;
45043;SDS011;30784;48.490;9.688;2023-08-31T15:26:49;4.90;;;1.30;;